Time;durP1;ratioP1;P1;durP2;ratioP2;P2;SDS_P1;SDS_P2;PMS_P1;PMS_P2;Temp;Humidity;BMP_temperature;BMP_pressure;BME280_temperature;BME280_humidity;BME280_pressure;Samples;Min_cycle;Max_cycle;Signal;HPM_P1;HPM_P2
2022/07/06 00:01:45;;;;;;;1.92;1.83;;;;;;;32.64;31.39;98220.47;5094000;28;20032;-78
2022/07/06 00:04:11;;;;;;;2.25;1.70;;;;;;;31.58;33.30;98216.69;5093469;28;20027;-78
2022/07/06 00:06:38;;;;;;;2.00;1.70;;;;;;;31.80;33.05;98210.72;5093976;28;20476;-78
2022/07/06 00:09:05;;;;;;;1.90;1.80;;;;;;;32.17;32.39;98209.19;5093756;28;20024;-78
2022/07/06 00:11:31;;;;;;;1.30;1.20;;;;;;;32.86;31.39;98208.66;5089903;28;20024;-78
2022/07/06 00:13:57;;;;;;;1.40;1.30;;;;;;;33.48;30.44;98211.25;5075702;28;20028;-78
2022/07/06 00:16:23;;;;;;;1.33;1.23;;;;;;;33.86;29.57;98202.50;5083189;28;20070;-78
2022/07/06 00:18:50;;;;;;;1.58;1.27;;;;;;;34.19;29.37;98216.41;5073499;28;20029;-78
2022/07/06 00:21:16;;;;;;;1.02;1.02;;;;;;;34.14;28.98;98204.91;5073329;28;20028;-78
2022/07/06 00:23:43;;;;;;;1.48;1.20;;;;;;;32.92;31.06;98229.47;5073319;28;20078;-78
2022/07/06 00:26:09;;;;;;;1.23;1.23;;;;;;;32.15;31.95;98220.25;5073429;28;20106;-77
2022/07/06 00:28:35;;;;;;;2.00;1.90;;;;;;;31.65;33.15;98221.22;5076442;28;20028;-78
2022/07/06 00:31:01;;;;;;;1.58;1.48;;;;;;;30.68;34.76;98221.41;5093658;28;20100;-78
2022/07/06 00:33:27;;;;;;;2.50;2.00;;;;;;;31.01;34.53;98220.72;5079712;28;20389;-77
2022/07/06 00:35:54;;;;;;;1.92;1.83;;;;;;;31.43;33.38;98215.84;5073117;28;20067;-78
2022/07/06 00:38:20;;;;;;;1.65;1.55;;;;;;;31.82;32.81;98219.53;5073239;28;20488;-78
2022/07/06 00:40:46;;;;;;;1.52;1.42;;;;;;;32.31;31.70;98214.09;5073531;28;20032;-78
2022/07/06 00:43:12;;;;;;;1.52;1.42;;;;;;;32.41;31.60;98207.06;5085019;28;20483;-78
2022/07/06 00:45:38;;;;;;;1.40;1.33;;;;;;;32.39;31.63;98208.84;5078730;28;20430;-78
2022/07/06 00:48:04;;;;;;;1.30;1.20;;;;;;;32.35;31.90;98216.78;5093380;28;20498;-78
2022/07/06 00:50:31;;;;;;;1.85;1.35;;;;;;;32.50;31.48;98212.69;5093393;28;20081;-78
2022/07/06 00:53:01;;;;;;;1.63;1.50;;;;;;;32.33;31.57;98220.09;5093242;28;20047;-78
2022/07/06 00:55:29;;;;;;;1.50;1.40;;;;;;;32.30;31.97;98214.59;5073106;28;20029;-78
2022/07/06 00:57:56;;;;;;;2.95;1.42;;;;;;;32.34;31.82;98215.19;5072965;28;20090;-78
2022/07/06 01:00:25;;;;;;;1.30;1.25;;;;;;;32.70;31.23;98214.84;5073065;28;20032;-78
2022/07/06 01:02:52;;;;;;;2.75;1.35;;;;;;;33.16;30.45;98220.84;5074033;28;20024;-78
2022/07/06 01:05:19;;;;;;;1.25;1.20;;;;;;;33.23;30.21;98218.38;5072949;28;20033;-78
2022/07/06 01:07:47;;;;;;;1.17;1.17;;;;;;;33.55;29.80;98213.72;5072910;28;20112;-78
2022/07/06 01:10:16;;;;;;;1.35;1.27;;;;;;;33.72;29.16;98213.94;5072951;28;20129;-78
2022/07/06 01:12:45;;;;;;;1.63;1.17;;;;;;;33.90;28.61;98220.16;5072642;28;20044;-78
2022/07/06 01:15:15;;;;;;;1.75;1.30;;;;;;;34.02;28.43;98216.16;5073179;28;20388;-78
2022/07/06 01:17:42;;;;;;;;;;;;;;;33.58;29.40;98214.78;5076766;28;20032;-78
2022/07/06 01:20:15;;;;;;;1.00;1.00;;;;;;;33.58;29.49;98215.56;5084588;28;20402;-78
2022/07/06 01:22:42;;;;;;;1.58;1.20;;;;;;;33.61;29.19;98217.41;5096974;28;20034;-78
2022/07/06 01:25:09;;;;;;;1.45;1.35;;;;;;;33.72;29.17;98214.72;5097011;28;20039;-78
2022/07/06 01:27:39;;;;;;;1.00;1.00;;;;;;;33.89;28.98;98223.47;5097096;28;20028;-78
2022/07/06 01:30:16;;;;;;;1.00;1.00;;;;;;;34.03;28.64;98217.75;5097214;28;20028;-78
2022/07/06 01:32:43;;;;;;;1.35;1.27;;;;;;;33.94;28.87;98226.41;5096380;28;20071;-78
2022/07/06 01:35:15;;;;;;;1.30;1.00;;;;;;;33.77;29.39;98218.94;5097115;28;20112;-78
2022/07/06 01:37:42;;;;;;;1.30;1.20;;;;;;;33.46;29.77;98225.19;5092412;28;20089;-78
2022/07/06 01:40:10;;;;;;;1.10;1.10;;;;;;;33.39;29.85;98219.91;5076240;28;20044;-78
2022/07/06 01:42:36;;;;;;;1.60;1.50;;;;;;;33.37;29.66;98223.25;5091837;28;20411;-78
2022/07/06 01:45:04;;;;;;;2.03;1.38;;;;;;;33.12;30.35;98226.72;5076220;28;20035;-78
2022/07/06 01:47:30;;;;;;;1.52;1.42;;;;;;;33.12;29.91;98221.03;5076453;28;20083;-78
2022/07/06 01:50:00;;;;;;;2.28;1.60;;;;;;;32.89;30.66;98219.06;5076472;28;20491;-78
2022/07/06 01:52:27;;;;;;;1.70;1.60;;;;;;;32.82;30.34;98221.50;5079356;28;20051;-78
2022/07/06 01:54:55;;;;;;;3.72;2.05;;;;;;;32.73;30.47;98228.09;5073841;28;20032;-78
2022/07/06 01:57:21;;;;;;;2.00;1.80;;;;;;;32.63;30.97;98226.63;5096752;28;20476;-78
2022/07/06 01:59:48;;;;;;;2.13;2.03;;;;;;;32.74;30.81;98233.28;5096128;28;20070;-78
2022/07/06 02:02:15;;;;;;;2.05;1.95;;;;;;;32.67;30.75;98236.50;5096489;28;20027;-77
2022/07/06 02:04:41;;;;;;;3.28;1.75;;;;;;;32.68;31.02;98225.94;5096270;28;20476;-77
2022/07/06 02:07:07;;;;;;;1.92;1.83;;;;;;;32.36;31.52;98224.81;5096212;28;20039;-78
2022/07/06 02:09:33;;;;;;;1.85;1.75;;;;;;;32.31;31.75;98219.78;5095749;28;20024;-77
2022/07/06 02:11:59;;;;;;;1.90;1.70;;;;;;;32.42;31.39;98217.16;5080169;28;20071;-77
2022/07/06 02:14:25;;;;;;;1.63;1.52;;;;;;;32.70;31.05;98212.00;5075867;28;20040;-78
2022/07/06 02:16:51;;;;;;;2.20;2.00;;;;;;;32.34;31.63;98220.88;5075690;28;20037;-77
2022/07/06 02:19:17;;;;;;;5.18;2.95;;;;;;;32.62;30.98;98210.84;5075849;28;20029;-78
2022/07/06 02:21:43;;;;;;;2.13;2.00;;;;;;;32.43;31.44;98215.09;5075455;28;20489;-78
2022/07/06 02:24:10;;;;;;;2.20;1.95;;;;;;;32.40;31.50;98216.06;5075436;28;20035;-78
2022/07/06 02:26:36;;;;;;;2.28;2.08;;;;;;;32.27;31.47;98212.72;5075443;28;20040;-78
2022/07/06 02:29:02;;;;;;;2.45;1.50;;;;;;;32.22;31.47;98213.41;5090967;28;20032;-78
2022/07/06 02:31:28;;;;;;;1.90;1.77;;;;;;;32.27;31.47;98216.38;5095672;28;20492;-78
2022/07/06 02:33:54;;;;;;;2.05;1.60;;;;;;;32.28;31.64;98217.16;5078188;28;20021;-77
2022/07/06 02:36:20;;;;;;;1.80;1.70;;;;;;;32.43;31.20;98213.06;5075253;28;20102;-78
2022/07/06 02:38:46;;;;;;;2.30;2.20;;;;;;;32.55;30.96;98216.91;5075205;28;20063;-77
2022/07/06 02:41:12;;;;;;;1.90;1.80;;;;;;;32.50;31.17;98215.53;5075177;28;20120;-77
2022/07/06 02:43:39;;;;;;;2.33;1.60;;;;;;;32.73;31.15;98228.09;5075172;28;20035;-78
2022/07/06 02:46:05;;;;;;;2.00;1.90;;;;;;;32.69;31.07;98222.63;5076197;28;20480;-78
2022/07/06 02:48:31;;;;;;;3.08;2.05;;;;;;;32.76;30.77;98221.44;5075239;28;20111;-78
2022/07/06 02:50:58;;;;;;;2.00;1.90;;;;;;;32.99;30.68;98223.38;5076062;28;20430;-77
2022/07/06 02:53:24;;;;;;;2.95;2.22;;;;;;;32.93;30.29;98219.66;5075012;28;20392;-78
2022/07/06 02:55:50;;;;;;;1.85;1.75;;;;;;;32.86;30.76;98224.97;5074908;28;20044;-78
2022/07/06 02:58:17;;;;;;;1.90;1.80;;;;;;;32.90;30.51;98229.19;5074774;28;20041;-78
2022/07/06 03:00:43;;;;;;;1.67;1.58;;;;;;;32.86;30.48;98225.72;5074996;28;20492;-78
2022/07/06 03:03:10;;;;;;;3.65;1.77;;;;;;;32.92;30.61;98229.47;5091386;28;20045;-78
2022/07/06 03:05:36;;;;;;;1.95;1.75;;;;;;;32.56;30.80;98232.69;5095109;28;20031;-77
2022/07/06 03:08:02;;;;;;;2.90;2.13;;;;;;;32.90;30.75;98223.50;5094607;28;20529;-78
2022/07/06 03:10:28;;;;;;;2.45;2.35;;;;;;;32.84;30.81;98228.28;5094929;28;20028;-78
2022/07/06 03:12:54;;;;;;;2.38;2.28;;;;;;;32.97;30.34;98228.78;5095039;28;20111;-78
2022/07/06 03:15:20;;;;;;;2.38;2.25;;;;;;;33.15;30.30;98227.81;5094248;28;20043;-78
2022/07/06 03:17:46;;;;;;;2.65;1.80;;;;;;;33.39;29.65;98231.31;5085664;28;20024;-78
2022/07/06 03:20:13;;;;;;;2.38;2.28;;;;;;;33.25;30.12;98238.59;5091445;28;20052;-78
2022/07/06 03:22:39;;;;;;;2.58;2.03;;;;;;;33.34;30.24;98244.16;5094518;28;20025;-78
2022/07/06 03:25:06;;;;;;;2.25;2.15;;;;;;;33.47;29.78;98240.97;5076576;28;20047;-78
2022/07/06 03:27:33;;;;;;;2.83;2.50;;;;;;;33.37;29.80;98250.94;5094948;28;20047;-78
2022/07/06 03:29:59;;;;;;;2.40;2.30;;;;;;;33.25;29.99;98255.69;5094547;28;20476;-77
2022/07/06 03:32:26;;;;;;;2.70;2.50;;;;;;;33.22;30.14;98255.84;5089540;28;20063;-77
2022/07/06 03:34:52;;;;;;;6.07;3.55;;;;;;;33.39;29.81;98249.16;5075843;28;20028;-78
2022/07/06 03:37:18;;;;;;;4.10;3.75;;;;;;;32.57;31.39;98257.00;5092478;28;20488;-78
2022/07/06 03:39:44;;;;;;;3.70;3.40;;;;;;;32.95;30.99;98261.84;5093634;28;20039;-78
2022/07/06 03:42:10;;;;;;;3.65;3.35;;;;;;;32.89;30.33;98260.94;5094090;28;20036;-78
2022/07/06 03:44:36;;;;;;;3.75;3.45;;;;;;;32.97;30.49;98260.09;5094319;28;20167;-77
2022/07/06 03:47:02;;;;;;;5.22;4.72;;;;;;;33.25;30.37;98263.44;5094286;28;20111;-78
2022/07/06 03:49:28;;;;;;;3.95;3.65;;;;;;;33.15;30.30;98254.22;5094370;28;20036;-76
2022/07/06 03:51:54;;;;;;;3.85;3.55;;;;;;;33.23;30.26;98263.94;5093953;28;20107;-78
2022/07/06 03:54:20;;;;;;;3.50;3.20;;;;;;;33.35;30.23;98259.97;5092391;28;20074;-78
2022/07/06 03:56:46;;;;;;;3.42;3.13;;;;;;;33.63;29.51;98262.50;5094013;28;20036;-78
2022/07/06 03:59:14;;;;;;;2.60;2.40;;;;;;;32.75;30.43;98257.63;5075638;28;20069;-78
2022/07/06 04:01:40;;;;;;;3.15;2.83;;;;;;;32.32;31.25;98254.69;5094273;28;20521;-78
2022/07/06 04:04:06;;;;;;;4.22;3.83;;;;;;;32.57;31.37;98245.63;5093942;28;20118;-78
2022/07/06 04:06:34;;;;;;;4.18;3.00;;;;;;;32.91;30.70;98252.72;5093614;28;20035;-78
2022/07/06 04:09:00;;;;;;;3.38;3.10;;;;;;;33.18;30.48;98255.28;5093647;28;20039;-78
2022/07/06 04:11:26;;;;;;;3.28;2.97;;;;;;;33.38;29.91;98250.44;5074608;28;20024;-77
2022/07/06 04:13:54;;;;;;;8.27;3.90;;;;;;;33.12;30.29;98255.19;5073501;28;20477;-78
2022/07/06 04:16:20;;;;;;;3.65;3.20;;;;;;;33.19;30.20;98249.09;5073735;28;20046;-78
2022/07/06 04:18:46;;;;;;;4.20;3.85;;;;;;;33.02;30.93;98256.59;5084890;28;20028;-78
2022/07/06 04:21:12;;;;;;;4.18;3.88;;;;;;;33.25;30.43;98264.22;5093394;28;20027;-78
2022/07/06 04:23:38;;;;;;;3.45;3.15;;;;;;;33.83;29.89;98265.38;5093767;28;20059;-78
2022/07/06 04:26:05;;;;;;;5.72;4.05;;;;;;;34.12;29.34;98259.59;5093030;28;20437;-78
2022/07/06 04:28:31;;;;;;;3.63;3.33;;;;;;;34.12;29.25;98258.78;5074189;28;20028;-78
2022/07/06 04:30:57;;;;;;;4.03;3.72;;;;;;;33.86;29.38;98275.78;5073316;28;20483;-78
2022/07/06 04:33:23;;;;;;;4.40;3.70;;;;;;;33.95;29.71;98270.72;5072892;28;20115;-78
2022/07/06 04:35:49;;;;;;;4.25;3.85;;;;;;;34.05;29.43;98265.72;5072837;28;20040;-78
2022/07/06 04:38:16;;;;;;;3.40;3.10;;;;;;;34.10;29.50;98273.53;5073257;28;20047;-78
2022/07/06 04:40:42;;;;;;;4.05;3.75;;;;;;;34.30;29.19;98275.59;5073169;28;20033;-78
2022/07/06 04:43:08;;;;;;;4.03;3.72;;;;;;;34.42;28.88;98271.59;5073428;28;20033;-78
2022/07/06 04:45:34;;;;;;;3.80;3.50;;;;;;;34.26;29.04;98290.06;5092614;28;20479;-78
2022/07/06 04:48:00;;;;;;;3.58;3.28;;;;;;;33.96;29.75;98294.28;5093323;28;20020;-78
2022/07/06 04:50:26;;;;;;;4.00;3.60;;;;;;;34.06;29.88;98293.69;5074922;28;20081;-77
2022/07/06 04:52:52;;;;;;;3.90;3.60;;;;;;;33.37;30.48;98291.56;5091504;28;20042;-78
2022/07/06 04:55:18;;;;;;;3.42;3.15;;;;;;;33.31;30.89;98306.97;5063873;28;20404;-78
2022/07/06 04:57:44;;;;;;;4.20;3.80;;;;;;;33.94;30.31;98314.75;5092885;28;20465;-78
2022/07/06 05:00:11;;;;;;;4.75;3.08;;;;;;;33.85;29.64;98316.94;5091958;28;20056;-77
2022/07/06 05:02:37;;;;;;;3.20;2.90;;;;;;;34.09;30.59;98306.19;5073479;28;20033;-78
2022/07/06 05:05:03;;;;;;;3.03;2.83;;;;;;;33.80;30.40;98312.72;5072755;28;20021;-78
2022/07/06 05:07:32;;;;;;;3.30;3.10;;;;;;;32.10;32.95;98314.69;5072974;28;20044;-78
2022/07/06 05:09:58;;;;;;;3.40;3.20;;;;;;;33.21;31.05;98308.38;5072906;28;20028;-78
2022/07/06 05:12:24;;;;;;;2.75;2.55;;;;;;;32.87;32.20;98312.66;5072783;28;20111;-78
2022/07/06 05:14:50;;;;;;;3.20;2.90;;;;;;;33.18;33.35;98313.00;5072803;28;20028;-78
2022/07/06 05:17:16;;;;;;;3.15;2.90;;;;;;;33.65;32.72;98319.75;5073145;28;20047;-78
2022/07/06 05:19:42;;;;;;;3.70;3.40;;;;;;;32.97;32.49;98325.53;5072559;28;20518;-78
2022/07/06 05:22:08;;;;;;;3.42;3.22;;;;;;;31.00;36.45;98324.88;5055037;28;20090;-78
2022/07/06 05:24:34;;;;;;;3.13;2.83;;;;;;;32.01;34.44;98332.56;5073036;28;20028;-78
2022/07/06 05:27:00;;;;;;;2.50;2.35;;;;;;;32.49;33.61;98319.16;5072948;28;20119;-78
2022/07/06 05:29:27;;;;;;;2.83;2.63;;;;;;;32.36;34.47;98317.81;5072652;28;20492;-78
2022/07/06 05:31:53;;;;;;;2.53;2.33;;;;;;;33.60;31.06;98323.28;5072104;28;20029;-76
2022/07/06 05:34:19;;;;;;;2.50;2.30;;;;;;;32.83;33.52;98320.59;5073508;28;20033;-75
2022/07/06 05:36:45;;;;;;;2.28;2.13;;;;;;;32.20;33.03;98318.25;5054665;28;20025;-75
2022/07/06 05:39:11;;;;;;;2.20;2.10;;;;;;;32.84;32.30;98310.78;5054634;28;20032;-76
2022/07/06 05:41:37;;;;;;;2.38;2.17;;;;;;;32.50;32.96;98314.25;5072654;28;20032;-76
2022/07/06 05:44:04;;;;;;;2.03;1.92;;;;;;;31.49;33.05;98330.28;5072794;28;20488;-76
2022/07/06 05:46:30;;;;;;;2.13;2.03;;;;;;;31.91;33.10;98336.69;5072158;28;20212;-76
2022/07/06 05:51:41;;;;;;;2.30;2.10;;;;;;;32.51;30.20;98335.75;5076901;28;20035;-75
2022/07/06 05:54:07;;;;;;;2.47;1.83;;;;;;;33.32;29.92;98331.34;5092614;28;20024;-76
2022/07/06 05:56:33;;;;;;;1.42;1.35;;;;;;;33.30;30.28;98337.50;5092621;28;20087;-76
2022/07/06 05:58:59;;;;;;;1.80;1.70;;;;;;;33.08;29.61;98336.34;5092646;28;20036;-76
2022/07/06 06:01:25;;;;;;;2.05;1.95;;;;;;;32.50;30.34;98334.16;5092420;28;20038;-76
2022/07/06 06:03:51;;;;;;;1.75;1.65;;;;;;;32.65;29.87;98332.16;5084153;28;20042;-76
2022/07/06 06:06:17;;;;;;;1.58;1.48;;;;;;;33.24;29.57;98335.84;5095912;28;20491;-76
2022/07/06 06:08:43;;;;;;;1.65;1.55;;;;;;;33.58;29.51;98340.88;5090531;28;20032;-76
2022/07/06 06:11:09;;;;;;;1.65;1.55;;;;;;;33.69;29.60;98332.50;5095025;28;20388;-76
2022/07/06 06:13:35;;;;;;;1.38;1.27;;;;;;;33.49;28.25;98340.97;5078290;28;20115;-76
2022/07/06 06:16:01;;;;;;;1.52;1.42;;;;;;;33.01;29.53;98337.50;5089708;28;20037;-76
2022/07/06 06:18:28;;;;;;;1.40;1.30;;;;;;;33.05;30.31;98345.88;5083673;28;20048;-76
2022/07/06 06:20:54;;;;;;;1.30;1.30;;;;;;;33.62;28.97;98350.00;5075514;28;20029;-75
2022/07/06 06:23:20;;;;;;;1.52;1.42;;;;;;;32.89;31.40;98347.09;5094851;28;20027;-76
2022/07/06 06:25:46;;;;;;;1.50;1.40;;;;;;;33.22;30.24;98347.72;5090520;28;20366;-76
2022/07/06 06:28:12;;;;;;;2.15;1.60;;;;;;;32.79;31.33;98339.94;5057646;28;20037;-76
2022/07/06 06:30:39;;;;;;;1.10;1.10;;;;;;;33.18;31.58;98344.31;5075087;28;20056;-76
2022/07/06 06:33:12;;;;;;;1.42;1.33;;;;;;;32.95;31.58;98352.88;5075376;28;20032;-76
2022/07/06 06:36:05;;;;;;;1.33;1.20;;;;;;;33.39;31.10;98350.88;5094419;28;20051;-76
2022/07/06 06:38:31;;;;;;;1.45;1.35;;;;;;;33.48;30.61;98345.06;5073490;28;20500;-76
2022/07/06 06:40:57;;;;;;;1.50;1.40;;;;;;;33.54;29.34;98348.81;5075382;28;20453;-76
2022/07/06 06:43:23;;;;;;;1.30;1.20;;;;;;;32.75;30.00;98345.00;5067844;28;20074;-78
2022/07/06 06:45:49;;;;;;;1.13;1.13;;;;;;;32.70;30.26;98346.47;5095150;28;20046;-78
2022/07/06 06:48:17;;;;;;;1.27;1.20;;;;;;;32.89;30.52;98343.44;5095604;28;20028;-78
2022/07/06 06:50:44;;;;;;;1.40;1.30;;;;;;;32.69;30.89;98349.78;5095375;28;20093;-78
2022/07/06 06:53:10;;;;;;;1.20;1.10;;;;;;;33.65;29.37;98345.38;5095375;28;20043;-78
2022/07/06 06:55:36;;;;;;;1.08;0.98;;;;;;;33.60;30.97;98346.06;5095285;28;20412;-78
2022/07/06 06:58:02;;;;;;;1.40;1.30;;;;;;;33.96;28.99;98343.53;5090598;28;20075;-78
2022/07/06 07:00:28;;;;;;;2.38;1.23;;;;;;;34.55;28.86;98352.69;5076003;28;20035;-78
2022/07/06 07:02:55;;;;;;;1.00;1.00;;;;;;;34.83;27.08;98355.06;5075129;28;20028;-79
2022/07/06 07:05:21;;;;;;;1.00;1.00;;;;;;;34.57;27.03;98355.81;5090011;28;20040;-78
2022/07/06 07:07:47;;;;;;;3.90;1.00;;;;;;;33.94;27.84;98353.84;5078263;28;20033;-78
2022/07/06 07:10:13;;;;;;;1.10;1.10;;;;;;;34.53;26.05;98357.31;5074713;28;20060;-78
2022/07/06 07:12:47;;;;;;;1.08;1.08;;;;;;;34.98;26.35;98347.22;5074724;28;20388;-78
2022/07/06 07:15:13;;;;;;;1.02;1.02;;;;;;;34.49;26.98;98360.38;5073648;28;20051;-78
2022/07/06 07:17:40;;;;;;;1.23;1.10;;;;;;;34.94;26.89;98344.56;5075607;28;20063;-78
2022/07/06 07:20:07;;;;;;;2.10;0.90;;;;;;;35.92;25.79;98348.84;5074518;28;20050;-78
2022/07/06 07:22:33;;;;;;;1.00;1.00;;;;;;;36.62;25.51;98342.50;5074326;28;20555;-78
2022/07/06 07:24:59;;;;;;;0.77;0.77;;;;;;;37.22;26.01;98341.94;5074865;28;20036;-78
2022/07/06 07:27:26;;;;;;;1.08;0.98;;;;;;;35.24;26.42;98348.78;5074316;28;20032;-78
2022/07/06 07:29:53;;;;;;;1.20;1.10;;;;;;;36.12;26.02;98352.91;5074100;28;20090;-78
2022/07/06 07:32:19;;;;;;;3.03;1.40;;;;;;;36.05;26.08;98351.31;5074289;28;20029;-78
2022/07/06 07:34:46;;;;;;;1.75;1.35;;;;;;;35.45;25.78;98357.28;5084203;28;20362;-76
2022/07/06 07:37:12;;;;;;;1.33;1.27;;;;;;;35.29;25.23;98365.19;5074273;28;20048;-76
2022/07/06 07:39:38;;;;;;;1.25;1.05;;;;;;;35.21;26.00;98366.94;5074437;28;20066;-76
2022/07/06 07:42:04;;;;;;;1.20;1.10;;;;;;;34.95;26.52;98368.97;5074052;28;20036;-76
2022/07/06 07:44:30;;;;;;;1.10;1.10;;;;;;;35.42;26.16;98364.81;5073841;28;20036;-78
2022/07/06 07:46:56;;;;;;;1.10;1.10;;;;;;;35.83;25.88;98366.19;5073950;28;20099;-79
2022/07/06 07:49:23;;;;;;;1.20;1.10;;;;;;;35.26;26.32;98369.06;5073940;28;20036;-79
2022/07/06 07:51:50;;;;;;;1.40;1.30;;;;;;;35.25;27.67;98375.28;5075078;28;20073;-79
2022/07/06 07:54:16;;;;;;;1.33;1.23;;;;;;;35.11;27.99;98362.69;5079604;28;20039;-76
2022/07/06 07:56:42;;;;;;;2.78;1.75;;;;;;;35.05;26.09;98366.78;5079997;28;20492;-76
2022/07/06 07:59:09;;;;;;;1.48;1.38;;;;;;;35.38;25.54;98370.72;5073204;28;20124;-76
2022/07/06 08:01:35;;;;;;;1.67;1.33;;;;;;;35.28;24.98;98365.72;5073827;28;20476;-76
2022/07/06 08:04:02;;;;;;;2.05;1.55;;;;;;;34.44;26.40;98369.63;5073790;28;20028;-76
2022/07/06 08:06:28;;;;;;;3.92;1.55;;;;;;;34.65;26.28;98379.78;5073340;28;20060;-76
2022/07/06 08:08:54;;;;;;;2.17;1.83;;;;;;;34.26;28.43;98384.13;5069888;28;20555;-76
2022/07/06 08:11:20;;;;;;;1.80;1.55;;;;;;;34.92;27.81;98378.53;5093618;28;20027;-76
2022/07/06 08:13:47;;;;;;;1.50;1.40;;;;;;;35.48;26.52;98385.63;5093767;28;20036;-76
2022/07/06 08:16:13;;;;;;;1.42;1.33;;;;;;;35.20;26.49;98381.72;5094062;28;20020;-76
2022/07/06 08:18:39;;;;;;;1.73;1.63;;;;;;;35.40;26.83;98381.66;5093739;28;20089;-77
2022/07/06 08:21:05;;;;;;;1.73;1.63;;;;;;;35.33;27.46;98387.81;5093704;28;20036;-77
2022/07/06 08:23:34;;;;;;;1.70;1.60;;;;;;;35.38;25.70;98382.16;5093628;28;20032;-77
2022/07/06 08:26:01;;;;;;;1.63;1.52;;;;;;;35.41;25.33;98378.28;5076973;28;20089;-77
2022/07/06 08:28:27;;;;;;;2.03;1.75;;;;;;;34.25;28.32;98381.78;5073560;28;20028;-76
2022/07/06 08:30:54;;;;;;;2.30;2.20;;;;;;;34.88;28.09;98377.19;5073354;28;20036;-76
2022/07/06 08:33:20;;;;;;;1.98;1.88;;;;;;;34.85;27.18;98378.16;5073565;28;20055;-76
2022/07/06 08:35:47;;;;;;;2.00;1.90;;;;;;;35.48;26.89;98376.25;5073401;28;20028;-77
2022/07/06 08:38:13;;;;;;;2.03;1.92;;;;;;;35.53;25.52;98382.06;5088908;28;20028;-77
2022/07/06 08:40:41;;;;;;;2.53;2.33;;;;;;;34.79;25.07;98375.28;5072025;28;20499;-78
2022/07/06 08:43:07;;;;;;;1.90;1.80;;;;;;;34.51;29.19;98380.59;5089426;28;20032;-78
2022/07/06 08:45:34;;;;;;;2.78;2.58;;;;;;;34.12;28.82;98389.91;5093368;28;20158;-78
2022/07/06 08:48:06;;;;;;;4.00;3.60;;;;;;;33.08;29.97;98396.88;5093562;28;20028;-78
2022/07/06 08:50:33;;;;;;;5.47;3.80;;;;;;;33.10;29.82;98407.78;5093303;28;20036;-78
2022/07/06 08:53:00;;;;;;;8.25;7.43;;;;;;;31.18;32.69;98421.28;5093129;28;20028;-77
2022/07/06 08:55:27;;;;;;;9.13;8.23;;;;;;;30.86;32.59;98419.06;5092834;28;20029;-78
2022/07/06 08:57:55;;;;;;;10.48;9.18;;;;;;;30.11;34.94;98423.47;5089904;28;20408;-78
2022/07/06 09:00:24;;;;;;;11.13;8.98;;;;;;;29.62;35.80;98431.09;5074344;28;20052;-78
2022/07/06 09:02:53;;;;;;;9.18;8.27;;;;;;;29.12;36.84;98424.47;5072965;28;20036;-79
2022/07/06 09:05:22;;;;;;;8.90;8.05;;;;;;;29.29;35.95;98434.34;5072863;28;20060;-80
2022/07/06 09:07:50;;;;;;;7.93;6.80;;;;;;;30.25;34.49;98437.03;5072937;28;20064;-80
2022/07/06 09:10:21;;;;;;;7.07;6.38;;;;;;;29.86;35.04;98440.69;5071379;28;20447;-80
2022/07/06 09:12:48;;;;;;;7.72;6.40;;;;;;;29.88;34.99;98435.34;5072901;28;20028;-80
2022/07/06 09:15:15;;;;;;;6.55;5.90;;;;;;;30.04;34.98;98441.53;5074000;28;20031;-79
2022/07/06 09:17:43;;;;;;;6.85;6.25;;;;;;;30.02;34.92;98437.59;5073859;28;20040;-80
2022/07/06 09:20:11;;;;;;;6.22;5.65;;;;;;;30.65;34.85;98445.50;5076345;28;20021;-80
2022/07/06 09:22:38;;;;;;;6.03;5.43;;;;;;;31.64;33.49;98438.25;5072796;28;20024;-79
2022/07/06 09:25:10;;;;;;;4.95;4.55;;;;;;;31.64;33.23;98436.22;5072569;28;20059;-79
2022/07/06 09:27:41;;;;;;;5.85;4.88;;;;;;;32.00;33.46;98432.47;5072561;28;20036;-79
2022/07/06 09:30:09;;;;;;;5.03;4.53;;;;;;;32.59;33.06;98433.59;5072786;28;20037;-79
2022/07/06 09:32:43;;;;;;;5.13;4.70;;;;;;;33.32;32.62;98414.69;5076130;28;20020;-79
2022/07/06 09:35:20;;;;;;;5.80;4.57;;;;;;;33.57;32.27;98412.53;5093051;28;20030;-79
2022/07/06 09:37:47;;;;;;;4.85;4.43;;;;;;;32.38;32.76;98423.28;5094512;28;20070;-79
2022/07/06 09:40:20;;;;;;;5.13;3.90;;;;;;;32.75;33.16;98422.56;5096730;28;20080;-79
2022/07/06 09:42:46;;;;;;;6.00;4.97;;;;;;;32.39;33.43;98427.69;5097079;28;20050;-79
2022/07/06 09:45:12;;;;;;;4.78;4.38;;;;;;;31.54;34.49;98420.47;5096767;28;20032;-79
2022/07/06 09:47:41;;;;;;;4.93;4.05;;;;;;;32.45;34.41;98420.88;5096548;28;20392;-79
2022/07/06 09:50:07;;;;;;;4.90;4.50;;;;;;;32.92;33.39;98424.97;5095109;28;20032;-79
2022/07/06 09:52:36;;;;;;;7.72;5.68;;;;;;;32.69;31.89;98423.75;5096418;28;20036;-79
2022/07/06 09:55:15;;;;;;;7.63;6.35;;;;;;;33.09;32.24;98424.06;5091744;28;20480;-79
2022/07/06 09:57:53;;;;;;;7.47;5.78;;;;;;;33.30;33.11;98422.91;5075810;28;20072;-79
2022/07/06 10:00:20;;;;;;;9.48;8.48;;;;;;;33.02;31.83;98423.66;5076174;28;20033;-79
2022/07/06 10:02:47;;;;;;;9.05;7.88;;;;;;;33.80;31.17;98420.19;5058562;28;20032;-79
2022/07/06 10:05:18;;;;;;;7.88;7.10;;;;;;;34.14;31.49;98413.78;5075861;28;20051;-79
2022/07/06 10:07:51;;;;;;;7.82;6.95;;;;;;;34.50;31.06;98421.81;5089376;28;20067;-79
2022/07/06 10:10:17;;;;;;;8.38;7.57;;;;;;;33.63;33.10;98417.03;5096069;28;20054;-79
2022/07/06 10:12:48;;;;;;;8.80;7.88;;;;;;;33.98;30.67;98415.03;5096347;28;20058;-79
2022/07/06 10:15:16;;;;;;;7.82;6.82;;;;;;;34.46;29.09;98417.59;5096344;28;20033;-79
2022/07/06 10:17:43;;;;;;;6.88;6.38;;;;;;;33.94;29.81;98423.03;5096101;28;20120;-79
2022/07/06 10:20:11;;;;;;;6.80;6.10;;;;;;;34.23;28.72;98416.50;5096025;28;20103;-77
2022/07/06 10:22:39;;;;;;;6.75;6.10;;;;;;;34.58;28.20;98420.16;5111450;28;20036;-77
2022/07/06 10:25:05;;;;;;;5.90;5.47;;;;;;;34.45;28.25;98418.91;5079165;28;20103;-79
2022/07/06 10:27:34;;;;;;;5.90;5.30;;;;;;;34.10;27.68;98413.19;5057650;28;20060;-77
2022/07/06 10:30:01;;;;;;;5.43;5.03;;;;;;;34.75;27.96;98414.66;5075758;28;20036;-77
2022/07/06 10:32:28;;;;;;;5.40;5.00;;;;;;;34.57;28.40;98415.72;5075399;28;20032;-77
2022/07/06 10:34:54;;;;;;;4.82;4.53;;;;;;;34.65;26.79;98411.16;5075411;28;20029;-77
2022/07/06 10:37:25;;;;;;;5.05;4.32;;;;;;;34.91;26.98;98410.44;5075224;28;20029;-77
2022/07/06 10:42:56;;;;;;;3.75;3.47;;;;;;;34.63;27.36;98410.88;5095447;28;20063;-77
2022/07/06 10:45:28;;;;;;;4.28;3.95;;;;;;;35.51;27.68;98401.00;5095455;28;20411;-77
2022/07/06 10:48:36;;;;;;;8.82;4.05;;;;;;;35.40;27.34;98398.81;5095520;28;20107;-77
2022/07/06 10:51:04;;;;;;;3.38;3.17;;;;;;;35.99;26.42;98407.66;5074996;28;20047;-77
2022/07/06 10:53:39;;;;;;;3.53;3.30;;;;;;;35.92;26.36;98406.03;5092427;28;20074;-77
2022/07/06 10:56:07;;;;;;;3.80;3.50;;;;;;;36.20;27.20;98405.47;5074562;28;20031;-78
2022/07/06 10:58:51;;;;;;;3.83;2.78;;;;;;;36.18;24.62;98408.03;5076167;28;20045;-77
2022/07/06 11:01:19;;;;;;;3.72;3.42;;;;;;;35.80;25.38;98412.94;5074719;28;20495;-77
2022/07/06 11:03:46;;;;;;;3.78;2.90;;;;;;;35.40;25.83;98404.50;5074830;28;20081;-77
2022/07/06 11:06:15;;;;;;;3.28;3.08;;;;;;;35.75;26.62;98410.06;5074835;28;20021;-77
2022/07/06 11:08:42;;;;;;;3.38;3.17;;;;;;;35.82;26.09;98403.88;5074824;28;20481;-77
2022/07/06 11:11:22;;;;;;;3.25;2.95;;;;;;;35.60;28.55;98410.19;5074786;28;20414;-77
2022/07/06 11:13:54;;;;;;;3.40;3.20;;;;;;;34.56;27.61;98416.22;5075006;28;20116;-77
2022/07/06 11:16:23;;;;;;;4.00;3.70;;;;;;;34.99;27.42;98409.47;5075767;28;20044;-77
2022/07/06 11:19:14;;;;;;;2.75;2.65;;;;;;;35.99;25.69;98411.31;5074888;28;20028;-79
2022/07/06 11:21:51;;;;;;;2.88;2.67;;;;;;;36.96;25.16;98409.28;5074573;28;20554;-78
2022/07/06 11:24:18;;;;;;;3.20;3.00;;;;;;;37.23;25.71;98411.44;5074578;28;20032;-78
2022/07/06 11:26:47;;;;;;;2.92;2.63;;;;;;;35.92;24.59;98405.22;5074388;28;20031;-78
2022/07/06 11:29:14;;;;;;;2.15;1.98;;;;;;;35.72;23.22;98416.78;5074238;28;20048;-77
2022/07/06 11:31:42;;;;;;;2.30;2.20;;;;;;;35.51;26.26;98410.34;5078267;28;20496;-78
2022/07/06 11:34:11;;;;;;;2.47;2.28;;;;;;;35.45;26.38;98411.56;5079554;28;20078;-78
2022/07/06 11:36:38;;;;;;;2.72;2.47;;;;;;;35.72;24.54;98417.56;5074306;28;20041;-78
2022/07/06 11:39:07;;;;;;;3.00;2.33;;;;;;;35.13;24.63;98410.69;5074390;28;20032;-78
2022/07/06 11:41:34;;;;;;;2.50;2.30;;;;;;;35.43;26.13;98412.84;5074218;28;20032;-78